createdAt,value
2019-04-10T00:02:31.249Z,9.10
2019-04-10T00:05:12.060Z,9.10
2019-04-10T00:07:51.505Z,9.10
2019-04-10T00:10:32.012Z,9.10
2019-04-10T00:13:12.099Z,9.10
2019-04-10T00:15:52.851Z,9.10
2019-04-10T00:18:33.800Z,9.10
2019-04-10T00:21:14.164Z,9.10
2019-04-10T00:23:55.506Z,9.10
2019-04-10T00:26:35.923Z,9.20
2019-04-10T00:29:16.149Z,9.20
2019-04-10T00:31:56.404Z,9.20
2019-04-10T00:34:36.002Z,9.20
2019-04-10T00:37:23.669Z,9.20
2019-04-10T00:39:59.190Z,9.30
2019-04-10T00:42:38.893Z,9.20
2019-04-10T00:45:19.499Z,9.20
2019-04-10T00:47:59.656Z,9.20
2019-04-10T00:50:39.580Z,9.20
2019-04-10T00:53:19.779Z,9.20
2019-04-10T00:55:59.986Z,9.20
2019-04-10T00:58:40.186Z,9.20
2019-04-10T01:01:20.204Z,9.20
2019-04-10T01:04:00.556Z,9.20
2019-04-10T01:06:40.649Z,9.20
2019-04-10T01:09:21.487Z,9.30
2019-04-10T01:12:01.644Z,9.30
2019-04-10T01:14:42.148Z,9.30
2019-04-10T01:17:22.652Z,9.30
2019-04-10T01:20:03.031Z,9.30
2019-04-10T01:22:43.496Z,9.30
2019-04-10T01:25:24.126Z,9.30
2019-04-10T01:28:04.683Z,9.30
2019-04-10T01:30:44.504Z,9.30
2019-04-10T01:33:24.949Z,9.20
2019-04-10T01:36:04.869Z,9.10
2019-04-10T01:38:46.062Z,9.10
2019-04-10T01:41:26.215Z,9.10
2019-04-10T01:44:06.077Z,9.10
2019-04-10T01:46:46.556Z,9.00
2019-04-10T01:49:26.138Z,9.00
2019-04-10T01:52:06.960Z,9.10
2019-04-10T01:54:47.123Z,9.10
2019-04-10T01:57:28.771Z,9.10
2019-04-10T02:00:11.073Z,9.20
2019-04-10T02:02:51.883Z,9.10
2019-04-10T02:05:32.448Z,9.20
2019-04-10T02:08:13.103Z,9.10
2019-04-10T02:10:59.009Z,9.10
2019-04-10T02:13:39.345Z,9.20
2019-04-10T02:16:17.322Z,9.10
2019-04-10T02:19:03.912Z,9.10
2019-04-10T02:21:44.422Z,9.00
2019-04-10T02:24:25.128Z,9.10
2019-04-10T02:27:05.779Z,9.10
2019-04-10T02:29:46.072Z,9.10
2019-04-10T02:32:26.506Z,9.10
2019-04-10T02:35:08.519Z,9.20
2019-04-10T02:37:52.511Z,9.10
2019-04-10T02:40:30.964Z,9.10
2019-04-10T02:43:12.529Z,9.10
2019-04-10T02:45:53.064Z,9.10
2019-04-10T02:48:33.999Z,9.10
2019-04-10T02:51:13.790Z,9.10
2019-04-10T02:53:55.698Z,9.00
2019-04-10T02:56:36.665Z,9.00
2019-04-10T02:59:18.538Z,9.00
2019-04-10T03:02:00.297Z,9.00
2019-04-10T03:04:42.503Z,9.00
2019-04-10T03:07:23.876Z,8.90
2019-04-10T03:10:15.297Z,8.90
2019-04-10T03:12:46.407Z,9.00
2019-04-10T03:15:27.310Z,9.00
2019-04-10T03:18:08.358Z,9.00
2019-04-10T03:20:49.215Z,9.00
2019-04-10T03:23:29.828Z,8.90
2019-04-10T03:26:09.765Z,8.80
2019-04-10T03:28:49.645Z,8.80
2019-04-10T03:31:31.587Z,8.90
2019-04-10T03:34:34.258Z,8.90
2019-04-10T03:37:12.948Z,8.80
2019-04-10T03:39:53.257Z,8.80
2019-04-10T03:42:33.215Z,8.90
2019-04-10T03:45:13.650Z,8.80
2019-04-10T03:47:53.634Z,8.80
2019-04-10T03:50:36.182Z,8.70
2019-04-10T03:53:18.105Z,8.70
2019-04-10T03:55:59.200Z,8.70
2019-04-10T03:58:39.802Z,8.60
2019-04-10T04:01:20.559Z,8.50
2019-04-10T04:04:01.488Z,8.50
2019-04-10T04:06:42.020Z,8.50
2019-04-10T04:09:21.835Z,8.50
2019-04-10T04:12:02.338Z,8.40
2019-04-10T04:14:42.276Z,8.40
2019-04-10T04:17:22.253Z,8.40
2019-04-10T04:20:02.531Z,8.30
2019-04-10T04:22:43.484Z,8.30
2019-04-10T04:25:24.059Z,8.20
2019-04-10T04:28:04.636Z,8.20
2019-04-10T04:30:45.673Z,8.10
2019-04-10T04:33:26.175Z,8.10
2019-04-10T04:36:10.394Z,8.10
2019-04-10T04:38:51.345Z,8.10
2019-04-10T04:41:31.653Z,8.10
2019-04-10T04:44:12.389Z,8.10
2019-04-10T04:46:53.764Z,8.00
2019-04-10T04:49:35.727Z,8.00
2019-04-10T04:52:16.262Z,7.90
2019-04-10T04:54:59.681Z,7.90
2019-04-10T04:57:39.692Z,7.90
2019-04-10T05:00:21.457Z,7.90
2019-04-10T05:03:01.908Z,7.90
2019-04-10T05:05:41.732Z,7.80
2019-04-10T05:08:21.822Z,7.80
2019-04-10T05:11:02.201Z,7.70
2019-04-10T05:13:42.749Z,7.70
2019-04-10T05:16:22.747Z,7.60
2019-04-10T05:19:03.720Z,7.60
2019-04-10T05:21:43.674Z,7.60
2019-04-10T05:24:24.089Z,7.50
2019-04-10T05:27:02.435Z,7.50
2019-04-10T05:29:49.209Z,7.50
2019-04-10T05:32:28.551Z,7.40
2019-04-10T05:35:10.053Z,7.40
2019-04-10T05:37:49.929Z,7.40
2019-04-10T05:40:33.116Z,7.40
2019-04-10T05:43:13.486Z,7.40
2019-04-10T05:45:53.144Z,7.50
2019-04-10T05:48:33.456Z,7.40
2019-04-10T05:51:12.987Z,7.50
2019-04-10T05:53:55.115Z,7.40
2019-04-10T05:56:36.355Z,7.50
2019-04-10T05:59:16.456Z,7.40
2019-04-10T06:01:56.841Z,7.50
2019-04-10T06:04:37.747Z,7.50
2019-04-10T06:07:19.156Z,7.40
2019-04-10T06:10:04.820Z,7.40
2019-04-10T06:12:42.674Z,7.30
2019-04-10T06:15:23.237Z,7.40
2019-04-10T06:18:04.887Z,7.30
2019-04-10T06:20:45.266Z,7.30
2019-04-10T06:23:25.663Z,7.30
2019-04-10T06:26:06.867Z,7.30
2019-04-10T06:28:47.149Z,7.30
2019-04-10T06:31:26.864Z,7.30
2019-04-10T06:34:06.888Z,7.30
2019-04-10T06:36:47.183Z,7.30
2019-04-10T06:39:29.502Z,7.30
2019-04-10T06:42:12.023Z,7.30
2019-04-10T06:44:52.653Z,7.20
2019-04-10T06:47:32.548Z,7.10
2019-04-10T06:50:12.873Z,7.10
2019-04-10T06:52:53.057Z,7.10
2019-04-10T06:58:16.166Z,7.00
2019-04-10T07:00:56.252Z,6.90
2019-04-10T07:03:49.671Z,6.90
2019-04-10T07:06:21.961Z,6.90
2019-04-10T07:09:00.228Z,6.80
2019-04-10T07:11:40.211Z,6.90
2019-04-10T07:14:20.579Z,6.90
2019-04-10T07:17:05.349Z,6.90
2019-04-10T07:19:44.029Z,6.90
2019-04-10T07:22:24.888Z,6.90
2019-04-10T07:27:45.935Z,7.00
2019-04-10T07:30:26.669Z,7.00
2019-04-10T07:33:07.624Z,7.10
2019-04-10T07:35:46.440Z,7.10
2019-04-10T07:38:33.185Z,7.20
2019-04-10T07:41:18.314Z,7.20
2019-04-10T07:43:56.774Z,7.30
2019-04-10T07:46:38.119Z,7.40
2019-04-10T07:49:19.429Z,7.40
2019-04-10T07:52:00.919Z,7.50
2019-04-10T07:54:44.612Z,7.50
2019-04-10T07:57:24.830Z,7.60
2019-04-10T08:00:07.294Z,7.70
2019-04-10T08:02:47.203Z,7.80
2019-04-10T08:05:27.383Z,7.90
2019-04-10T08:08:08.570Z,7.80
2019-04-10T08:10:48.830Z,7.90
2019-04-10T08:13:28.891Z,8.10
2019-04-10T08:16:08.815Z,8.20
2019-04-10T08:18:49.806Z,8.20
2019-04-10T08:21:30.109Z,8.30
2019-04-10T08:24:11.459Z,8.40
2019-04-10T08:26:52.635Z,8.50
2019-04-10T08:29:32.882Z,8.60
2019-04-10T08:32:13.898Z,8.80
2019-04-10T08:34:53.516Z,8.90
2019-04-10T08:37:34.829Z,9.10
2019-04-10T08:40:15.684Z,9.30
2019-04-10T08:42:54.326Z,9.50
2019-04-10T08:45:48.111Z,9.70
2019-04-10T08:48:43.414Z,9.80
2019-04-10T08:54:03.259Z,10.30
2019-04-10T08:56:44.844Z,10.50
2019-04-10T08:59:24.581Z,10.80
2019-04-10T09:02:04.442Z,11.10
2019-04-10T09:04:46.852Z,11.70
2019-04-10T09:07:28.308Z,11.90
2019-04-10T09:10:07.718Z,12.30
2019-04-10T09:12:48.029Z,12.80
2019-04-10T09:15:29.951Z,12.90
2019-04-10T09:18:11.417Z,13.50
2019-04-10T09:20:51.156Z,13.90
2019-04-10T09:23:39.792Z,13.90
2019-04-10T09:26:13.496Z,14.10
2019-04-10T09:28:53.083Z,14.30
2019-04-10T09:36:59.969Z,14.70
2019-04-10T09:39:43.206Z,15.20
2019-04-10T09:42:24.065Z,15.60
2019-04-10T09:45:04.736Z,15.10
2019-04-10T09:47:44.168Z,15.50
2019-04-10T09:50:26.148Z,15.80
2019-04-10T09:53:06.403Z,16.70
2019-04-10T09:55:46.995Z,17.10
2019-04-10T09:58:27.274Z,17.30
2019-04-10T10:01:08.327Z,16.80
2019-04-10T10:03:48.688Z,16.00
2019-04-10T10:06:33.489Z,15.60
2019-04-10T10:09:12.666Z,15.30
2019-04-10T10:11:55.557Z,15.20
2019-04-10T10:14:35.886Z,14.70
2019-04-10T10:17:16.782Z,14.60
2019-04-10T10:19:57.624Z,14.50
2019-04-10T10:22:39.047Z,14.70
2019-04-10T10:25:19.594Z,14.90
2019-04-10T10:27:59.651Z,14.90
2019-04-10T10:33:20.241Z,15.20
2019-04-10T10:36:00.022Z,15.20
2019-04-10T10:38:40.697Z,14.90
2019-04-10T10:41:20.326Z,14.70
2019-04-10T10:44:00.615Z,14.70
2019-04-10T10:46:40.525Z,15.20
2019-04-10T10:52:17.655Z,15.40
2019-04-10T10:54:59.041Z,15.80
2019-04-10T10:57:39.717Z,16.10
2019-04-10T11:00:21.411Z,16.00
2019-04-10T11:03:02.274Z,16.00
2019-04-10T11:05:42.267Z,16.00
2019-04-10T11:08:22.079Z,15.70
2019-04-10T11:11:02.152Z,15.30
2019-04-10T11:13:43.172Z,15.20
2019-04-10T11:16:23.230Z,15.40
2019-04-10T11:19:04.757Z,15.40
2019-04-10T11:21:45.200Z,15.50
2019-04-10T11:24:25.524Z,15.50
2019-04-10T11:29:46.739Z,16.50
2019-04-10T11:35:19.225Z,16.50
2019-04-10T11:38:00.915Z,16.80
2019-04-10T11:40:41.994Z,16.30
2019-04-10T11:43:24.396Z,16.60
2019-04-10T11:46:05.158Z,16.50
2019-04-10T11:48:46.878Z,16.90
2019-04-10T11:51:30.251Z,17.20
2019-04-10T11:54:13.010Z,17.10
2019-04-10T11:56:54.949Z,17.00
2019-04-10T11:59:35.986Z,17.40
2019-04-10T12:02:20.416Z,17.50
2019-04-10T12:13:03.238Z,18.20
2019-04-10T12:15:43.554Z,18.10
2019-04-10T12:18:24.592Z,18.30
2019-04-10T12:21:05.192Z,18.30
2019-04-10T12:23:45.440Z,18.20
2019-04-10T12:26:25.858Z,18.30
2019-04-10T12:28:55.261Z,18.40
2019-04-10T12:31:42.131Z,18.40
2019-04-10T12:34:22.400Z,19.10
2019-04-10T12:37:02.848Z,18.80
2019-04-10T12:39:43.354Z,19.20
2019-04-10T12:42:23.952Z,20.10
2019-04-10T12:45:08.131Z,20.00
2019-04-10T12:47:48.705Z,19.70
2019-04-10T12:50:28.713Z,20.00
2019-04-10T12:53:09.401Z,19.80
2019-04-10T12:55:49.745Z,19.70
2019-04-10T12:58:30.895Z,19.70
2019-04-10T13:01:12.108Z,20.00
2019-04-10T13:03:53.499Z,19.70
2019-04-10T13:06:33.888Z,19.30
2019-04-10T13:09:14.474Z,19.20
2019-04-10T13:11:55.007Z,19.50
2019-04-10T13:14:34.937Z,19.60
2019-04-10T13:17:14.971Z,19.80
2019-04-10T13:19:55.601Z,19.80
2019-04-10T13:22:36.063Z,18.80
2019-04-10T13:25:16.401Z,18.30
2019-04-10T13:27:56.084Z,18.40
2019-04-10T13:30:46.801Z,18.80
2019-04-10T13:33:20.467Z,19.40
2019-04-10T13:36:00.229Z,19.70
2019-04-10T13:38:40.387Z,19.80
2019-04-10T13:41:20.714Z,20.20
2019-04-10T13:44:00.849Z,21.30
2019-04-10T13:46:41.055Z,22.40
2019-04-10T13:49:22.007Z,22.10
2019-04-10T13:52:01.977Z,21.20
2019-04-10T13:54:42.917Z,20.50
2019-04-10T13:57:24.403Z,20.60
2019-04-10T14:00:05.799Z,20.70
2019-04-10T14:02:49.938Z,20.20
2019-04-10T14:05:32.513Z,19.80
2019-04-10T14:08:12.588Z,19.80
2019-04-10T14:10:52.971Z,19.90
2019-04-10T14:13:33.202Z,20.10
2019-04-10T14:16:13.447Z,20.30
2019-04-10T14:18:53.664Z,20.30
2019-04-10T14:21:33.507Z,20.10
2019-04-10T14:24:13.652Z,20.10
2019-04-10T14:27:14.194Z,19.40
2019-04-10T14:29:54.576Z,19.70
2019-04-10T14:32:37.519Z,20.60
2019-04-10T14:35:18.918Z,21.00
2019-04-10T14:37:58.876Z,20.10
2019-04-10T14:40:40.078Z,19.80
2019-04-10T14:43:20.903Z,19.60
2019-04-10T14:46:01.152Z,18.60
2019-04-10T14:48:41.184Z,18.20
2019-04-10T14:51:21.974Z,18.50
2019-04-10T14:54:00.048Z,19.10
2019-04-10T14:56:47.108Z,20.00
2019-04-10T14:59:26.735Z,20.50
2019-04-10T15:02:09.108Z,20.00
2019-04-10T15:04:49.734Z,19.90
2019-04-10T15:07:33.318Z,19.40
2019-04-10T15:10:13.347Z,19.70
2019-04-10T15:12:53.360Z,19.50
2019-04-10T15:15:34.233Z,19.60
2019-04-10T15:18:15.004Z,19.40
2019-04-10T15:20:56.495Z,18.90
2019-04-10T15:23:36.569Z,18.60
2019-04-10T15:26:17.738Z,19.10
2019-04-10T15:28:58.290Z,20.00
2019-04-10T15:31:37.881Z,20.10
2019-04-10T15:34:18.355Z,19.90
2019-04-10T15:36:58.546Z,20.20
2019-04-10T15:39:40.138Z,20.70
2019-04-10T15:42:20.185Z,20.40
2019-04-10T15:45:00.780Z,19.90
2019-04-10T15:47:49.218Z,19.10
2019-04-10T15:50:22.545Z,18.40
2019-04-10T15:53:02.731Z,17.60
2019-04-10T15:55:42.745Z,17.10
2019-04-10T15:58:23.519Z,16.90
2019-04-10T16:01:05.980Z,16.90
2019-04-10T16:03:47.079Z,16.80
2019-04-10T16:06:29.250Z,16.80
2019-04-10T16:09:09.665Z,16.70
2019-04-10T16:15:04.986Z,17.00
2019-04-10T16:21:02.121Z,17.00
2019-04-10T16:23:47.593Z,16.60
2019-04-10T16:26:29.228Z,16.70
2019-04-10T16:29:09.628Z,16.90
2019-04-10T16:31:50.291Z,17.10
2019-04-10T16:34:30.341Z,17.10
2019-04-10T16:37:10.421Z,16.90
2019-04-10T16:39:58.612Z,16.40
2019-04-10T16:42:32.777Z,16.20
2019-04-10T16:45:13.549Z,16.20
2019-04-10T16:47:53.266Z,16.10
2019-04-10T16:50:34.169Z,15.80
2019-04-10T16:53:18.118Z,15.60
2019-04-10T16:55:59.087Z,15.70
2019-04-10T16:58:41.155Z,15.30
2019-04-10T17:01:22.474Z,15.10
2019-04-10T17:04:02.756Z,14.90
2019-04-10T17:06:44.936Z,14.80
2019-04-10T17:09:26.935Z,14.70
2019-04-10T17:12:06.959Z,14.40
2019-04-10T17:14:47.820Z,14.20
2019-04-10T17:17:28.420Z,13.80
2019-04-10T17:20:08.682Z,13.60
2019-04-10T17:22:49.789Z,13.20
2019-04-10T17:25:30.487Z,13.00
2019-04-10T17:28:14.271Z,12.70
2019-04-10T17:30:56.032Z,12.50
2019-04-10T17:33:36.345Z,12.30
2019-04-10T17:36:16.906Z,12.10
2019-04-10T17:38:56.444Z,11.90
2019-04-10T17:41:36.752Z,11.80
2019-04-10T17:44:17.951Z,11.70
2019-04-10T17:46:58.268Z,11.60
2019-04-10T17:49:39.219Z,11.50
2019-04-10T17:52:19.292Z,11.40
2019-04-10T17:54:59.402Z,11.30
2019-04-10T17:57:42.900Z,11.20
2019-04-10T18:03:49.431Z,11.00
2019-04-10T18:06:23.507Z,10.80
2019-04-10T18:09:01.635Z,10.70
2019-04-10T18:11:50.386Z,10.60
2019-04-10T18:14:31.197Z,10.50
2019-04-10T18:17:11.293Z,10.40
2019-04-10T18:19:50.954Z,10.40
2019-04-10T18:22:30.992Z,10.30
2019-04-10T18:25:11.864Z,10.20
2019-04-10T18:27:52.504Z,10.10
2019-04-10T18:30:34.555Z,10.00
2019-04-10T18:33:15.215Z,10.00
2019-04-10T18:35:55.413Z,9.90
2019-04-10T18:38:35.589Z,9.90
2019-04-10T18:41:15.749Z,9.90
2019-04-10T18:43:56.343Z,9.80
2019-04-10T18:46:37.656Z,9.80
2019-04-10T18:49:18.996Z,9.70
2019-04-10T18:52:01.926Z,9.60
2019-04-10T18:54:43.511Z,9.50
2019-04-10T18:57:24.074Z,9.40
2019-04-10T19:09:46.975Z,9.10
2019-04-10T19:12:27.058Z,9.00
2019-04-10T19:15:07.161Z,9.00
2019-04-10T19:17:47.180Z,9.00
2019-04-10T19:20:27.254Z,9.00
2019-04-10T19:23:07.160Z,8.90
2019-04-10T19:25:49.139Z,9.00
2019-04-10T19:28:35.068Z,9.00
2019-04-10T19:31:19.107Z,9.00
2019-04-10T19:33:56.968Z,9.00
2019-04-10T19:36:37.842Z,9.00
2019-04-10T19:39:18.202Z,9.10
2019-04-10T19:41:58.304Z,9.00
2019-04-10T19:44:39.100Z,9.10
2019-04-10T19:47:19.936Z,9.10
2019-04-10T19:49:59.812Z,9.10
2019-04-10T19:52:40.337Z,9.10
2019-04-10T19:55:20.124Z,9.10
2019-04-10T19:58:00.233Z,9.10
2019-04-10T20:00:40.932Z,9.10
2019-04-10T20:03:21.719Z,9.00
2019-04-10T20:06:01.676Z,8.90
2019-04-10T20:08:42.404Z,8.80
2019-04-10T20:11:33.799Z,8.70
2019-04-10T20:14:06.303Z,8.60
2019-04-10T20:16:47.183Z,8.50
2019-04-10T20:19:31.419Z,8.50
2019-04-10T20:22:12.731Z,8.30
2019-04-10T20:24:53.439Z,8.30
2019-04-10T20:27:34.135Z,8.20
2019-04-10T20:30:15.234Z,8.10
2019-04-10T20:32:56.479Z,8.10
2019-04-10T20:35:36.259Z,8.00
2019-04-10T20:38:16.152Z,8.00
2019-04-10T20:40:55.837Z,7.90
2019-04-10T20:43:35.635Z,7.80
2019-04-10T20:46:15.986Z,7.70
2019-04-10T20:48:55.624Z,7.70
2019-04-10T20:51:35.609Z,7.60
2019-04-10T20:54:15.501Z,7.60
2019-04-10T20:56:57.235Z,7.50
2019-04-10T20:59:37.523Z,7.50
2019-04-10T21:02:18.084Z,7.50
2019-04-10T21:05:03.167Z,7.50
2019-04-10T21:07:40.776Z,7.40
2019-04-10T21:10:21.356Z,7.40
2019-04-10T21:13:01.433Z,7.30
2019-04-10T21:15:42.254Z,7.20
2019-04-10T21:18:22.155Z,7.20
2019-04-10T21:21:10.208Z,7.10
2019-04-10T21:24:11.401Z,7.00
2019-04-10T21:26:52.755Z,6.90
2019-04-10T21:29:52.721Z,6.80
2019-04-10T21:33:04.241Z,6.80
2019-04-10T21:35:43.749Z,6.70
2019-04-10T21:38:23.656Z,6.70
2019-04-10T21:41:05.839Z,6.70
2019-04-10T21:43:47.608Z,6.70
2019-04-10T21:46:28.450Z,6.60
2019-04-10T21:49:08.348Z,6.60
2019-04-10T21:51:48.035Z,6.60
2019-04-10T21:54:29.271Z,6.50
2019-04-10T21:57:09.704Z,6.40
2019-04-10T21:59:49.632Z,6.40
2019-04-10T22:02:30.158Z,6.40
2019-04-10T22:05:10.812Z,6.30
2019-04-10T22:08:10.976Z,6.20
2019-04-10T22:10:50.880Z,6.20
2019-04-10T22:13:30.626Z,6.20
2019-04-10T22:16:13.482Z,6.20
2019-04-10T22:18:54.138Z,6.10
2019-04-10T22:21:34.914Z,6.10
2019-04-10T22:24:15.758Z,6.10
2019-04-10T22:26:55.853Z,6.00
2019-04-10T22:29:36.894Z,6.00
2019-04-10T22:32:16.842Z,6.00
2019-04-10T22:34:57.008Z,5.90
2019-04-10T22:37:37.706Z,5.90
2019-04-10T22:40:18.056Z,5.90
2019-04-10T22:42:57.857Z,5.90
2019-04-10T22:45:38.106Z,5.90
2019-04-10T22:48:18.898Z,5.90
2019-04-10T22:50:59.130Z,5.90
2019-04-10T22:53:39.644Z,5.80
2019-04-10T22:56:20.962Z,5.70
2019-04-10T22:59:01.722Z,5.70
2019-04-10T23:01:43.021Z,5.70
2019-04-10T23:04:23.448Z,5.70
2019-04-10T23:07:03.978Z,5.60
2019-04-10T23:09:44.450Z,5.60
2019-04-10T23:12:24.511Z,5.50
2019-04-10T23:15:04.496Z,5.50
2019-04-10T23:17:45.491Z,5.50
2019-04-10T23:20:25.897Z,5.40
2019-04-10T23:23:06.500Z,5.40
2019-04-10T23:25:46.913Z,5.30
2019-04-10T23:28:27.335Z,5.30
2019-04-10T23:31:07.670Z,5.30
2019-04-10T23:33:48.281Z,5.20
2019-04-10T23:36:28.093Z,5.20
2019-04-10T23:39:08.205Z,5.20
2019-04-10T23:44:29.117Z,5.10
2019-04-10T23:47:09.622Z,5.00
2019-04-10T23:49:50.031Z,5.00
2019-04-10T23:52:29.766Z,4.90
2019-04-10T23:55:10.134Z,4.80
2019-04-10T23:57:50.102Z,4.80
